NATO11 ESDF-ETSN
Flight info
| Callsign | NATO11 |
|---|---|
| Flight time | 1h 6m |
| Altitude | 40000 |
| Route | BIKRU EBAWE TABOK LUPAK HOZ MILGU TALEG PLAUN RALIV OGMAM RDG IGL NEU |
| Aircraft | EUFI/M-GILRTUY/S |
Departure
| Time | 2026-04-26 19:43 |
|---|---|
| Airport | Ronneby Airport (ESDF) |
Arrival
| Time | 2026-04-26 20:49 |
|---|---|
| Airport | Neuburg Air Base (ETSN) |
| Time | Latitude | Longitude | Altitude | Speed | Heading |
|---|---|---|---|---|---|
| 2026-04-26 19:08 | 56.26538 | 15.27053 | 191 ft | 0 kts | 257° |
| 2026-04-26 19:37 | 56.26501 | 15.27029 | 191 ft | 14 kts | 174° |
| 2026-04-26 19:38 | 56.26405 | 15.27058 | 196 ft | 14 kts | 168° |
| 2026-04-26 19:38 | 56.26295 | 15.27096 | 196 ft | 16 kts | 170° |
| 2026-04-26 19:38 | 56.26187 | 15.27137 | 193 ft | 15 kts | 168° |
| 2026-04-26 19:38 | 56.26087 | 15.27168 | 194 ft | 14 kts | 182° |
| 2026-04-26 19:39 | 56.26003 | 15.27091 | 194 ft | 13 kts | 218° |
| 2026-04-26 19:39 | 56.25929 | 15.26979 | 193 ft | 16 kts | 220° |
| 2026-04-26 19:39 | 56.25836 | 15.26840 | 194 ft | 19 kts | 221° |
| 2026-04-26 19:39 | 56.25723 | 15.26672 | 188 ft | 23 kts | 218° |
| 2026-04-26 19:40 | 56.25642 | 15.26489 | 194 ft | 18 kts | 257° |
| 2026-04-26 19:40 | 56.25640 | 15.26376 | 189 ft | 0 kts | 276° |
| 2026-04-26 19:40 | 56.25640 | 15.26369 | 189 ft | 0 kts | 280° |
| 2026-04-26 19:41 | 56.25660 | 15.26317 | 201 ft | 10 kts | 312° |
| 2026-04-26 19:41 | 56.25711 | 15.26278 | 195 ft | 8 kts | 6° |
| 2026-04-26 19:41 | 56.25730 | 15.26284 | 189 ft | 8 kts | 10° |
| 2026-04-26 19:42 | 56.25757 | 15.26291 | 189 ft | 0 kts | 8° |
| 2026-04-26 19:42 | 56.26130 | 15.26389 | 187 ft | 133 kts | 8° |
| 2026-04-26 19:42 | 56.27425 | 15.26752 | 386 ft | 225 kts | 9° |
| 2026-04-26 19:43 | 56.29165 | 15.27318 | 1523 ft | 287 kts | 8° |
| 2026-04-26 19:43 | 56.31149 | 15.27832 | 2957 ft | 286 kts | 358° |
| 2026-04-26 19:43 | 56.33073 | 15.26816 | 4573 ft | 296 kts | 325° |
| 2026-04-26 19:43 | 56.34213 | 15.23750 | 6058 ft | 313 kts | 284° |
| 2026-04-26 19:44 | 56.34040 | 15.19867 | 7327 ft | 318 kts | 250° |
| 2026-04-26 19:44 | 56.32635 | 15.16711 | 8579 ft | 332 kts | 220° |
| 2026-04-26 19:44 | 56.30570 | 15.14703 | 10015 ft | 346 kts | 204° |
| 2026-04-26 19:44 | 56.28209 | 15.13412 | 11392 ft | 360 kts | 200° |
| 2026-04-26 19:45 | 56.25755 | 15.12209 | 12890 ft | 370 kts | 200° |
| 2026-04-26 19:45 | 56.23298 | 15.11028 | 13301 ft | 382 kts | 199° |
| 2026-04-26 19:45 | 56.20751 | 15.09864 | 14053 ft | 375 kts | 199° |
| 2026-04-26 19:45 | 56.18149 | 15.08616 | 15258 ft | 389 kts | 201° |
| 2026-04-26 19:46 | 56.15570 | 15.07169 | 16614 ft | 394 kts | 204° |
| 2026-04-26 19:46 | 56.12955 | 15.05650 | 18227 ft | 400 kts | 204° |
| 2026-04-26 19:46 | 56.10256 | 15.04092 | 19774 ft | 413 kts | 204° |
| 2026-04-26 19:46 | 56.07507 | 15.02517 | 21525 ft | 417 kts | 204° |
| 2026-04-26 19:47 | 56.04717 | 15.00927 | 23514 ft | 431 kts | 203° |
| 2026-04-26 19:47 | 56.03733 | 15.00368 | 24180 ft | 436 kts | 203° |
| 2026-04-26 19:47 | 55.98829 | 14.97617 | 27446 ft | 455 kts | 203° |
| 2026-04-26 19:47 | 55.95725 | 14.95899 | 29178 ft | 479 kts | 203° |
| 2026-04-26 19:48 | 55.92504 | 14.94121 | 29781 ft | 481 kts | 202° |
| 2026-04-26 19:48 | 55.89323 | 14.92419 | 30279 ft | 482 kts | 202° |
| 2026-04-26 19:48 | 55.86049 | 14.90695 | 30717 ft | 487 kts | 202° |
| 2026-04-26 19:48 | 55.82810 | 14.89022 | 30508 ft | 496 kts | 201° |
| 2026-04-26 19:49 | 55.79567 | 14.87380 | 30394 ft | 469 kts | 202° |
| 2026-04-26 19:49 | 55.76394 | 14.85565 | 31090 ft | 489 kts | 205° |
| 2026-04-26 19:49 | 55.73212 | 14.83522 | 31799 ft | 486 kts | 206° |
| 2026-04-26 19:49 | 55.70053 | 14.81355 | 32529 ft | 492 kts | 207° |
| 2026-04-26 19:50 | 55.66825 | 14.79072 | 33470 ft | 502 kts | 208° |
| 2026-04-26 19:50 | 55.63618 | 14.76591 | 34401 ft | 502 kts | 210° |
| 2026-04-26 19:50 | 55.60443 | 14.74038 | 35190 ft | 513 kts | 210° |
| 2026-04-26 19:50 | 55.57179 | 14.71324 | 36183 ft | 519 kts | 211° |
| 2026-04-26 19:51 | 55.53898 | 14.68544 | 37312 ft | 527 kts | 212° |
| 2026-04-26 19:51 | 55.51715 | 14.66524 | 38122 ft | 535 kts | 213° |
| 2026-04-26 19:51 | 55.48397 | 14.63353 | 39395 ft | 548 kts | 213° |
| 2026-04-26 19:51 | 55.45015 | 14.60125 | 40381 ft | 551 kts | 213° |
| 2026-04-26 19:52 | 55.41646 | 14.56931 | 40257 ft | 559 kts | 212° |
| 2026-04-26 19:52 | 55.38231 | 14.53728 | 39983 ft | 553 kts | 212° |
| 2026-04-26 19:52 | 55.34867 | 14.50593 | 40051 ft | 540 kts | 212° |
| 2026-04-26 19:52 | 55.31553 | 14.47503 | 40136 ft | 547 kts | 212° |
| 2026-04-26 19:53 | 55.24822 | 14.41104 | 40217 ft | 546 kts | 213° |
| 2026-04-26 19:53 | 55.17875 | 14.35619 | 40258 ft | 555 kts | 204° |
| 2026-04-26 19:54 | 55.10749 | 14.30442 | 40272 ft | 551 kts | 206° |
| 2026-04-26 19:54 | 55.03686 | 14.25342 | 40278 ft | 552 kts | 206° |
| 2026-04-26 19:55 | 54.96561 | 14.20195 | 40282 ft | 551 kts | 206° |
| 2026-04-26 19:55 | 54.89463 | 14.15162 | 40292 ft | 555 kts | 199° |
| 2026-04-26 19:56 | 54.81973 | 14.12762 | 40304 ft | 561 kts | 191° |
| 2026-04-26 19:56 | 54.74325 | 14.10579 | 40303 ft | 556 kts | 195° |
| 2026-04-26 19:57 | 54.66653 | 14.08104 | 40300 ft | 559 kts | 194° |
| 2026-04-26 19:57 | 54.59061 | 14.05617 | 40301 ft | 558 kts | 194° |
| 2026-04-26 19:58 | 54.51397 | 14.03120 | 40301 ft | 559 kts | 194° |
| 2026-04-26 19:58 | 54.43783 | 14.00663 | 40298 ft | 558 kts | 194° |
| 2026-04-26 19:59 | 54.36120 | 13.98203 | 40300 ft | 559 kts | 194° |
| 2026-04-26 19:59 | 54.28492 | 13.95761 | 40305 ft | 558 kts | 194° |
| 2026-04-26 20:00 | 54.20881 | 13.93332 | 40304 ft | 559 kts | 194° |
| 2026-04-26 20:00 | 54.13248 | 13.90905 | 40302 ft | 559 kts | 194° |
| 2026-04-26 20:01 | 54.05604 | 13.88484 | 40301 ft | 559 kts | 194° |
| 2026-04-26 20:01 | 53.97923 | 13.86061 | 40302 ft | 559 kts | 194° |
| 2026-04-26 20:02 | 53.90309 | 13.83666 | 40307 ft | 558 kts | 194° |
| 2026-04-26 20:02 | 53.83935 | 13.81670 | 40304 ft | 558 kts | 194° |
| 2026-04-26 20:03 | 53.75028 | 13.78889 | 40307 ft | 558 kts | 194° |
| 2026-04-26 20:03 | 53.67428 | 13.76526 | 40308 ft | 557 kts | 193° |
| 2026-04-26 20:04 | 53.59786 | 13.74159 | 40311 ft | 557 kts | 193° |
| 2026-04-26 20:04 | 53.52129 | 13.71795 | 40316 ft | 557 kts | 193° |
| 2026-04-26 20:05 | 53.44530 | 13.69458 | 40317 ft | 557 kts | 193° |
| 2026-04-26 20:05 | 53.36894 | 13.67118 | 40315 ft | 557 kts | 193° |
| 2026-04-26 20:06 | 53.29311 | 13.64803 | 40313 ft | 557 kts | 193° |
| 2026-04-26 20:06 | 53.21663 | 13.62476 | 40314 ft | 556 kts | 193° |
| 2026-04-26 20:07 | 53.14077 | 13.60176 | 40313 ft | 556 kts | 193° |
| 2026-04-26 20:07 | 53.06441 | 13.57870 | 40310 ft | 555 kts | 193° |
| 2026-04-26 20:08 | 52.98861 | 13.55589 | 40313 ft | 555 kts | 193° |
| 2026-04-26 20:08 | 52.91186 | 13.53317 | 40349 ft | 566 kts | 197° |
| 2026-04-26 20:09 | 52.83470 | 13.50996 | 40310 ft | 561 kts | 196° |
| 2026-04-26 20:09 | 52.75774 | 13.48690 | 40306 ft | 559 kts | 195° |
| 2026-04-26 20:10 | 52.68126 | 13.46416 | 40305 ft | 561 kts | 195° |
| 2026-04-26 20:10 | 52.60487 | 13.44162 | 40309 ft | 558 kts | 195° |
| 2026-04-26 20:11 | 52.52808 | 13.41901 | 40312 ft | 559 kts | 195° |
| 2026-04-26 20:12 | 52.41351 | 13.38539 | 40319 ft | 559 kts | 195° |
| 2026-04-26 20:12 | 52.33755 | 13.36321 | 40318 ft | 556 kts | 195° |
| 2026-04-26 20:13 | 52.26099 | 13.34093 | 40314 ft | 556 kts | 195° |
| 2026-04-26 20:13 | 52.18510 | 13.31893 | 40309 ft | 555 kts | 195° |
| 2026-04-26 20:14 | 52.10928 | 13.29702 | 40302 ft | 555 kts | 195° |
| 2026-04-26 20:14 | 52.03386 | 13.27529 | 40294 ft | 554 kts | 195° |
| 2026-04-26 20:15 | 51.95783 | 13.25348 | 40298 ft | 554 kts | 195° |
| 2026-04-26 20:15 | 51.88174 | 13.23172 | 40294 ft | 554 kts | 195° |
| 2026-04-26 20:16 | 51.80601 | 13.21013 | 40294 ft | 554 kts | 195° |
| 2026-04-26 20:16 | 51.73314 | 13.17377 | 40314 ft | 539 kts | 214° |
| 2026-04-26 20:17 | 51.66881 | 13.11251 | 40306 ft | 540 kts | 213° |
| 2026-04-26 20:17 | 51.60269 | 13.05604 | 40300 ft | 541 kts | 214° |
| 2026-04-26 20:18 | 51.53635 | 12.99905 | 40295 ft | 540 kts | 214° |
| 2026-04-26 20:18 | 51.46975 | 12.94153 | 40297 ft | 543 kts | 213° |
| 2026-04-26 20:19 | 51.40367 | 12.88457 | 40296 ft | 542 kts | 213° |
| 2026-04-26 20:19 | 51.33689 | 12.82734 | 40296 ft | 542 kts | 213° |
| 2026-04-26 20:20 | 51.27064 | 12.77076 | 40300 ft | 542 kts | 213° |
| 2026-04-26 20:20 | 51.20415 | 12.71415 | 40293 ft | 542 kts | 213° |
| 2026-04-26 20:21 | 51.13743 | 12.65750 | 40292 ft | 542 kts | 212° |
| 2026-04-26 20:21 | 51.07108 | 12.60140 | 40294 ft | 540 kts | 212° |
| 2026-04-26 20:22 | 51.00453 | 12.54531 | 40293 ft | 541 kts | 212° |
| 2026-04-26 20:22 | 50.93840 | 12.48978 | 40297 ft | 541 kts | 212° |
| 2026-04-26 20:23 | 50.87172 | 12.43399 | 40297 ft | 538 kts | 212° |
| 2026-04-26 20:23 | 50.80549 | 12.37871 | 40295 ft | 541 kts | 212° |
| 2026-04-26 20:24 | 50.73886 | 12.32328 | 40293 ft | 539 kts | 212° |
| 2026-04-26 20:24 | 50.67254 | 12.26827 | 40288 ft | 537 kts | 211° |
| 2026-04-26 20:25 | 50.60608 | 12.21342 | 40292 ft | 539 kts | 211° |
| 2026-04-26 20:25 | 50.54018 | 12.15915 | 40291 ft | 536 kts | 211° |
| 2026-04-26 20:26 | 50.47357 | 12.10443 | 40291 ft | 537 kts | 211° |
| 2026-04-26 20:26 | 50.40753 | 12.05037 | 40289 ft | 537 kts | 211° |
| 2026-04-26 20:27 | 50.33700 | 12.00958 | 40312 ft | 545 kts | 195° |
| 2026-04-26 20:27 | 50.26153 | 11.99666 | 40307 ft | 550 kts | 183° |
| 2026-04-26 20:28 | 50.18545 | 11.98916 | 40305 ft | 549 kts | 186° |
| 2026-04-26 20:28 | 50.10948 | 11.98171 | 40291 ft | 548 kts | 187° |
| 2026-04-26 20:29 | 50.03333 | 11.97391 | 40279 ft | 549 kts | 186° |
| 2026-04-26 20:29 | 49.95683 | 11.96587 | 40257 ft | 549 kts | 186° |
| 2026-04-26 20:29 | 49.91917 | 11.96686 | 40277 ft | 552 kts | 173° |
| 2026-04-26 20:30 | 49.88125 | 11.97953 | 40467 ft | 555 kts | 167° |
| 2026-04-26 20:30 | 49.84473 | 11.99900 | 40722 ft | 561 kts | 158° |
| 2026-04-26 20:30 | 49.80901 | 12.02542 | 40313 ft | 573 kts | 155° |
| 2026-04-26 20:30 | 49.77340 | 12.05191 | 39563 ft | 557 kts | 157° |
| 2026-04-26 20:31 | 49.73829 | 12.07672 | 38707 ft | 547 kts | 158° |
| 2026-04-26 20:31 | 49.70440 | 12.10065 | 37684 ft | 534 kts | 157° |
| 2026-04-26 20:31 | 49.67106 | 12.12447 | 36692 ft | 522 kts | 157° |
| 2026-04-26 20:31 | 49.63836 | 12.14815 | 35746 ft | 511 kts | 156° |
| 2026-04-26 20:32 | 49.60650 | 12.17152 | 34902 ft | 502 kts | 156° |
| 2026-04-26 20:32 | 49.57559 | 12.19448 | 34063 ft | 496 kts | 156° |
| 2026-04-26 20:32 | 49.54467 | 12.21773 | 33133 ft | 486 kts | 156° |
| 2026-04-26 20:32 | 49.51449 | 12.24071 | 32250 ft | 478 kts | 155° |
| 2026-04-26 20:33 | 49.48527 | 12.26322 | 31444 ft | 473 kts | 155° |
| 2026-04-26 20:33 | 49.45596 | 12.28607 | 30648 ft | 466 kts | 155° |
| 2026-04-26 20:33 | 49.42679 | 12.30729 | 29779 ft | 458 kts | 158° |
| 2026-04-26 20:33 | 49.39783 | 12.32550 | 28896 ft | 453 kts | 161° |
| 2026-04-26 20:34 | 49.36849 | 12.34267 | 28064 ft | 448 kts | 161° |
| 2026-04-26 20:34 | 49.33945 | 12.35991 | 27238 ft | 442 kts | 161° |
| 2026-04-26 20:34 | 49.31085 | 12.37710 | 26454 ft | 437 kts | 161° |
| 2026-04-26 20:34 | 49.28292 | 12.39409 | 25727 ft | 434 kts | 160° |
| 2026-04-26 20:35 | 49.26433 | 12.40549 | 25244 ft | 432 kts | 160° |
| 2026-04-26 20:35 | 49.22735 | 12.42844 | 24269 ft | 425 kts | 160° |
| 2026-04-26 20:35 | 49.20001 | 12.44566 | 23588 ft | 422 kts | 160° |
| 2026-04-26 20:35 | 49.17334 | 12.46249 | 22913 ft | 416 kts | 160° |
| 2026-04-26 20:36 | 49.15511 | 12.47299 | 22462 ft | 413 kts | 162° |
| 2026-04-26 20:36 | 49.11919 | 12.49118 | 21604 ft | 406 kts | 166° |
| 2026-04-26 20:36 | 49.10121 | 12.49934 | 21189 ft | 403 kts | 166° |
| 2026-04-26 20:36 | 49.06071 | 12.51382 | 20329 ft | 478 kts | 180° |
| 2026-04-26 20:37 | 49.03919 | 12.51007 | 19769 ft | 463 kts | 200° |
| 2026-04-26 20:37 | 49.01353 | 12.48273 | 19398 ft | 448 kts | 235° |
| 2026-04-26 20:37 | 49.00264 | 12.42385 | 19222 ft | 449 kts | 267° |
| 2026-04-26 20:37 | 49.00151 | 12.39265 | 18628 ft | 437 kts | 267° |
| 2026-04-26 20:38 | 48.99991 | 12.34646 | 17480 ft | 431 kts | 268° |
| 2026-04-26 20:38 | 48.99836 | 12.30151 | 16382 ft | 426 kts | 268° |
| 2026-04-26 20:38 | 48.99682 | 12.25686 | 15413 ft | 421 kts | 268° |
| 2026-04-26 20:38 | 48.99526 | 12.21235 | 14423 ft | 414 kts | 267° |
| 2026-04-26 20:39 | 48.99373 | 12.16863 | 13452 ft | 410 kts | 267° |
| 2026-04-26 20:39 | 48.99144 | 12.12766 | 12572 ft | 404 kts | 260° |
| 2026-04-26 20:39 | 48.98246 | 12.08739 | 11671 ft | 399 kts | 243° |
| 2026-04-26 20:39 | 48.96718 | 12.05184 | 10993 ft | 398 kts | 235° |
| 2026-04-26 20:40 | 48.95099 | 12.01854 | 10264 ft | 394 kts | 235° |
| 2026-04-26 20:40 | 48.93421 | 11.98564 | 9423 ft | 390 kts | 233° |
| 2026-04-26 20:40 | 48.91749 | 11.95374 | 8745 ft | 387 kts | 233° |
| 2026-04-26 20:40 | 48.90069 | 11.92178 | 8046 ft | 383 kts | 233° |
| 2026-04-26 20:41 | 48.88412 | 11.89030 | 7438 ft | 379 kts | 232° |
| 2026-04-26 20:41 | 48.86775 | 11.85922 | 6835 ft | 377 kts | 232° |
| 2026-04-26 20:41 | 48.85193 | 11.82928 | 6212 ft | 336 kts | 232° |
| 2026-04-26 20:41 | 48.83751 | 11.80221 | 5746 ft | 325 kts | 232° |
| 2026-04-26 20:42 | 48.82352 | 11.77601 | 5344 ft | 321 kts | 232° |
| 2026-04-26 20:42 | 48.80951 | 11.74968 | 4928 ft | 319 kts | 231° |
| 2026-04-26 20:42 | 48.79563 | 11.72395 | 4446 ft | 317 kts | 231° |
| 2026-04-26 20:42 | 48.78165 | 11.69805 | 4054 ft | 316 kts | 231° |
| 2026-04-26 20:43 | 48.76892 | 11.67432 | 3985 ft | 318 kts | 231° |
| 2026-04-26 20:43 | 48.75496 | 11.64834 | 4115 ft | 318 kts | 231° |
| 2026-04-26 20:43 | 48.74106 | 11.62222 | 4115 ft | 318 kts | 232° |
| 2026-04-26 20:43 | 48.72733 | 11.59643 | 4031 ft | 316 kts | 232° |
| 2026-04-26 20:44 | 48.71403 | 11.56953 | 3902 ft | 318 kts | 241° |
| 2026-04-26 20:44 | 48.70862 | 11.53769 | 3883 ft | 315 kts | 269° |
| 2026-04-26 20:44 | 48.70880 | 11.50417 | 3867 ft | 317 kts | 271° |
| 2026-04-26 20:44 | 48.70923 | 11.47086 | 3861 ft | 318 kts | 271° |
| 2026-04-26 20:45 | 48.70950 | 11.43765 | 3805 ft | 316 kts | 271° |
| 2026-04-26 20:45 | 48.70970 | 11.40415 | 3641 ft | 318 kts | 271° |
| 2026-04-26 20:45 | 48.71000 | 11.37064 | 3220 ft | 318 kts | 271° |
| 2026-04-26 20:45 | 48.71020 | 11.33719 | 2944 ft | 316 kts | 271° |
| 2026-04-26 20:46 | 48.71033 | 11.30379 | 2919 ft | 316 kts | 271° |
| 2026-04-26 20:46 | 48.71040 | 11.27064 | 2902 ft | 316 kts | 271° |
| 2026-04-26 20:46 | 48.71042 | 11.23712 | 2931 ft | 319 kts | 270° |
| 2026-04-26 20:46 | 48.70084 | 11.21059 | 2804 ft | 326 kts | 192° |
| 2026-04-26 20:47 | 48.68490 | 11.22135 | 2880 ft | 219 kts | 103° |
| 2026-04-26 20:47 | 48.68484 | 11.23498 | 2767 ft | 186 kts | 87° |
| 2026-04-26 20:47 | 48.68634 | 11.26317 | 2615 ft | 206 kts | 73° |
| 2026-04-26 20:47 | 48.69509 | 11.27750 | 2139 ft | 184 kts | 12° |
| 2026-04-26 20:48 | 48.70690 | 11.27256 | 1841 ft | 181 kts | 313° |
| 2026-04-26 20:48 | 48.71096 | 11.25287 | 1549 ft | 213 kts | 271° |
| 2026-04-26 20:48 | 48.71081 | 11.23449 | 1352 ft | 143 kts | 272° |
| 2026-04-26 20:48 | 48.71092 | 11.22122 | 1249 ft | 113 kts | 271° |
| 2026-04-26 20:49 | 48.71094 | 11.21110 | 1254 ft | 84 kts | 270° |
| 2026-04-26 20:49 | 48.71098 | 11.20326 | 1248 ft | 66 kts | 271° |
| 2026-04-26 20:49 | 48.71100 | 11.19730 | 1251 ft | 32 kts | 270° |
| 2026-04-26 20:49 | 48.71070 | 11.19622 | 1253 ft | 9 kts | 153° |
| 2026-04-26 20:50 | 48.71023 | 11.19701 | 1251 ft | 10 kts | 118° |
| 2026-04-26 20:50 | 48.71016 | 11.19772 | 1251 ft | 7 kts | 92° |
| 2026-04-26 20:50 | 48.71017 | 11.19844 | 1251 ft | 8 kts | 89° |
| 2026-04-26 20:50 | 48.71016 | 11.19950 | 1251 ft | 14 kts | 90° |
| 2026-04-26 20:51 | 48.71015 | 11.20191 | 1250 ft | 31 kts | 91° |
| 2026-04-26 20:51 | 48.71013 | 11.20544 | 1250 ft | 35 kts | 91° |
| 2026-04-26 20:51 | 48.71011 | 11.20888 | 1254 ft | 31 kts | 90° |
| 2026-04-26 20:51 | 48.71010 | 11.21199 | 1252 ft | 28 kts | 91° |
| 2026-04-26 20:52 | 48.71008 | 11.21431 | 1251 ft | 15 kts | 91° |
| 2026-04-26 20:52 | 48.71007 | 11.21562 | 1251 ft | 11 kts | 92° |
| 2026-04-26 20:52 | 48.70952 | 11.21616 | 1253 ft | 10 kts | 171° |
| 2026-04-26 20:52 | 48.70870 | 11.21637 | 1254 ft | 14 kts | 168° |
| 2026-04-26 20:53 | 48.70782 | 11.21707 | 1251 ft | 14 kts | 136° |
| 2026-04-26 20:53 | 48.70746 | 11.21785 | 1251 ft | 8 kts | 116° |
| 2026-04-26 20:53 | 48.70715 | 11.21809 | 1251 ft | 4 kts | 268° |
| 2026-04-26 20:53 | 48.70724 | 11.21806 | 1259 ft | 0 kts | 19° |